Current Weather

Danbury Muni

Danbury, Connecticut (KDXR)

Report from: Wednesday, May 29, 2024 8:53 PM EDT
Current time: Wednesday, May 29, 2024 9:04 PM EDT

Nearby weather – Weather history – Daily summaries
Weather forecast

Temperature18.3°C (64.9°F)
Dew point12.2°C (54.0°F)
Winds Calm
Visibility10 mi. (16.1 km)
Clouds Few clouds 9,000 ft. (2,743 m)
Altimeter29.91 in.Hg (1013 mB)
Relative humidity68 %
Density altitude615 ft. (188 m)
Sea-level pressure101.2 kPa (1012 mB, 29.90 in.Hg)
Remarks System requires maintenance
Automated weather observing station with precipitation discriminator
Lightning observed
Distant southwest
Flight conditions Visual Meteorological Conditions
Raw dataKDXR 300053Z 00000KT 10SM FEW090 18/12 A2991 RMK AO2 LTG DSNT SW SLP124 T01830122 $
An error has occurred. This application may no longer respond until reloaded. Reload 🗙